sensor_id;sensor_type;location;lat;lon;timestamp;pressure;altitude;pressure_sealevel;temperature;humidity
62703;BME280;66022;50.448;18.122;2023-05-11T00:03:42;99292.83;;;12.72;53.10
62703;BME280;66022;50.448;18.122;2023-05-11T00:07:54;99292.28;;;12.68;52.74
62703;BME280;66022;50.448;18.122;2023-05-11T00:12:06;99291.13;;;12.62;53.62
62703;BME280;66022;50.448;18.122;2023-05-11T00:16:18;99290.25;;;12.60;53.75
62703;BME280;66022;50.448;18.122;2023-05-11T00:20:30;99290.66;;;12.58;54.12
62703;BME280;66022;50.448;18.122;2023-05-11T00:24:42;99290.94;;;12.53;54.32
62703;BME280;66022;50.448;18.122;2023-05-11T00:28:54;99290.19;;;12.51;54.66
62703;BME280;66022;50.448;18.122;2023-05-11T00:33:06;99290.11;;;12.48;55.12
62703;BME280;66022;50.448;18.122;2023-05-11T00:37:18;99290.28;;;12.48;54.79
62703;BME280;66022;50.448;18.122;2023-05-11T00:41:30;99290.45;;;12.48;54.81
62703;BME280;66022;50.448;18.122;2023-05-11T00:45:42;99291.09;;;12.49;54.97
62703;BME280;66022;50.448;18.122;2023-05-11T00:49:54;99291.82;;;12.49;55.35
62703;BME280;66022;50.448;18.122;2023-05-11T00:54:06;99291.88;;;12.47;55.25
62703;BME280;66022;50.448;18.122;2023-05-11T00:58:18;99292.19;;;12.48;55.29
62703;BME280;66022;50.448;18.122;2023-05-11T01:02:30;99291.74;;;12.47;56.23
62703;BME280;66022;50.448;18.122;2023-05-11T01:19:23;99289.36;;;12.50;55.84
62703;BME280;66022;50.448;18.122;2023-05-11T01:31:54;99287.42;;;12.45;57.52
62703;BME280;66022;50.448;18.122;2023-05-11T01:36:07;99287.56;;;12.45;56.81
62703;BME280;66022;50.448;18.122;2023-05-11T01:40:20;99287.73;;;12.45;56.60
62703;BME280;66022;50.448;18.122;2023-05-11T01:44:30;99288.53;;;12.44;57.13
62703;BME280;66022;50.448;18.122;2023-05-11T01:48:43;99288.64;;;12.45;56.93
62703;BME280;66022;50.448;18.122;2023-05-11T01:52:54;99288.67;;;12.45;57.82
62703;BME280;66022;50.448;18.122;2023-05-11T01:57:06;99289.61;;;12.45;57.18
62703;BME280;66022;50.448;18.122;2023-05-11T02:01:18;99290.52;;;12.43;57.41
62703;BME280;66022;50.448;18.122;2023-05-11T02:05:30;99291.33;;;12.41;57.20
62703;BME280;66022;50.448;18.122;2023-05-11T02:09:42;99291.42;;;12.41;57.10
62703;BME280;66022;50.448;18.122;2023-05-11T02:13:54;99292.18;;;12.40;57.55
62703;BME280;66022;50.448;18.122;2023-05-11T02:18:10;99293.33;;;12.41;56.98
62703;BME280;66022;50.448;18.122;2023-05-11T02:22:18;99294.18;;;12.40;58.77
62703;BME280;66022;50.448;18.122;2023-05-11T02:26:30;99295.56;;;12.42;57.41
62703;BME280;66022;50.448;18.122;2023-05-11T02:30:45;99296.65;;;12.42;58.06
62703;BME280;66022;50.448;18.122;2023-05-11T02:39:07;99297.71;;;12.36;58.20
62703;BME280;66022;50.448;18.122;2023-05-11T02:43:20;99298.50;;;12.32;59.04
62703;BME280;66022;50.448;18.122;2023-05-11T02:47:31;99297.28;;;12.30;58.27
62703;BME280;66022;50.448;18.122;2023-05-11T02:51:42;99297.28;;;12.27;59.73
62703;BME280;66022;50.448;18.122;2023-05-11T02:55:54;99297.78;;;12.24;58.63
62703;BME280;66022;50.448;18.122;2023-05-11T03:00:06;99299.59;;;12.22;58.50
62703;BME280;66022;50.448;18.122;2023-05-11T03:04:18;99300.81;;;12.18;58.74
62703;BME280;66022;50.448;18.122;2023-05-11T03:08:33;99300.47;;;12.15;58.45
62703;BME280;66022;50.448;18.122;2023-05-11T03:12:42;99300.85;;;12.11;59.36
62703;BME280;66022;50.448;18.122;2023-05-11T03:16:54;99300.64;;;12.09;58.50
62703;BME280;66022;50.448;18.122;2023-05-11T03:21:06;99299.42;;;12.05;58.63
62703;BME280;66022;50.448;18.122;2023-05-11T03:25:18;99298.91;;;12.01;59.09
62703;BME280;66022;50.448;18.122;2023-05-11T03:29:30;99297.86;;;11.98;59.54
62703;BME280;66022;50.448;18.122;2023-05-11T03:33:42;99297.72;;;11.93;60.26
62703;BME280;66022;50.448;18.122;2023-05-11T03:37:54;99298.99;;;11.89;60.02
62703;BME280;66022;50.448;18.122;2023-05-11T03:42:06;99299.17;;;11.78;64.15
62703;BME280;66022;50.448;18.122;2023-05-11T03:46:19;99299.02;;;11.71;61.52
62703;BME280;66022;50.448;18.122;2023-05-11T03:50:30;99298.67;;;11.65;61.60
62703;BME280;66022;50.448;18.122;2023-05-11T03:54:42;99298.28;;;11.57;61.75
62703;BME280;66022;50.448;18.122;2023-05-11T03:58:54;99298.17;;;11.54;61.48
62703;BME280;66022;50.448;18.122;2023-05-11T04:03:06;99298.02;;;11.51;62.21
62703;BME280;66022;50.448;18.122;2023-05-11T04:07:18;99298.86;;;11.51;61.76
62703;BME280;66022;50.448;18.122;2023-05-11T04:11:30;99299.72;;;11.51;61.94
62703;BME280;66022;50.448;18.122;2023-05-11T04:15:42;99301.56;;;11.51;62.04
62703;BME280;66022;50.448;18.122;2023-05-11T04:19:54;99303.61;;;11.53;61.28
62703;BME280;66022;50.448;18.122;2023-05-11T04:24:06;99304.60;;;11.54;62.03
62703;BME280;66022;50.448;18.122;2023-05-11T04:28:18;99305.83;;;11.58;61.72
62703;BME280;66022;50.448;18.122;2023-05-11T04:32:30;99306.81;;;11.59;62.85
62703;BME280;66022;50.448;18.122;2023-05-11T04:36:42;99308.65;;;11.64;62.93
62703;BME280;66022;50.448;18.122;2023-05-11T04:40:54;99309.64;;;11.67;62.31
62703;BME280;66022;50.448;18.122;2023-05-11T04:45:06;99310.67;;;11.82;60.50
62703;BME280;66022;50.448;18.122;2023-05-11T04:49:18;99310.50;;;12.18;57.51
62703;BME280;66022;50.448;18.122;2023-05-11T04:53:30;99311.60;;;13.06;51.34
62703;BME280;66022;50.448;18.122;2023-05-11T04:57:42;99311.88;;;14.44;44.23
62703;BME280;66022;50.448;18.122;2023-05-11T05:01:54;99312.31;;;15.95;39.64
62703;BME280;66022;50.448;18.122;2023-05-11T05:06:06;99312.69;;;17.58;38.79
62703;BME280;66022;50.448;18.122;2023-05-11T05:10:18;99312.56;;;19.16;37.36
62703;BME280;66022;50.448;18.122;2023-05-11T05:14:33;99312.96;;;20.45;35.57
62703;BME280;66022;50.448;18.122;2023-05-11T05:18:42;99313.78;;;21.83;34.90
62703;BME280;66022;50.448;18.122;2023-05-11T05:22:54;99313.73;;;22.99;32.80
62703;BME280;66022;50.448;18.122;2023-05-11T05:27:06;99313.36;;;23.83;35.50
62703;BME280;66022;50.448;18.122;2023-05-11T05:31:18;99312.97;;;24.66;35.28
62703;BME280;66022;50.448;18.122;2023-05-11T05:35:30;99311.72;;;25.46;33.46
62703;BME280;66022;50.448;18.122;2023-05-11T05:39:42;99311.99;;;26.29;33.25
62703;BME280;66022;50.448;18.122;2023-05-11T05:43:54;99313.16;;;26.93;31.71
62703;BME280;66022;50.448;18.122;2023-05-11T05:48:06;99315.72;;;27.56;32.91
62703;BME280;66022;50.448;18.122;2023-05-11T05:52:18;99317.88;;;27.31;32.43
62703;BME280;66022;50.448;18.122;2023-05-11T05:56:33;99319.94;;;26.68;39.56
62703;BME280;66022;50.448;18.122;2023-05-11T06:00:42;99321.13;;;25.88;39.80
62703;BME280;66022;50.448;18.122;2023-05-11T06:04:54;99321.62;;;25.28;38.39
62703;BME280;66022;50.448;18.122;2023-05-11T06:09:06;99323.14;;;25.18;36.94
62703;BME280;66022;50.448;18.122;2023-05-11T06:13:18;99323.75;;;25.10;36.42
62703;BME280;66022;50.448;18.122;2023-05-11T06:17:30;99325.59;;;25.19;35.61
62703;BME280;66022;50.448;18.122;2023-05-11T06:21:42;99327.20;;;25.21;33.48
62703;BME280;66022;50.448;18.122;2023-05-11T06:25:54;99329.91;;;25.07;38.70
62703;BME280;66022;50.448;18.122;2023-05-11T06:30:06;99332.89;;;24.62;40.87
62703;BME280;66022;50.448;18.122;2023-05-11T06:34:21;99335.35;;;23.91;41.50
62703;BME280;66022;50.448;18.122;2023-05-11T06:38:30;99340.04;;;23.41;43.71
62703;BME280;66022;50.448;18.122;2023-05-11T06:42:42;99344.22;;;22.96;42.86
62703;BME280;66022;50.448;18.122;2023-05-11T06:46:54;99347.85;;;22.52;43.71
62703;BME280;66022;50.448;18.122;2023-05-11T06:51:09;99349.86;;;22.12;43.61
62703;BME280;66022;50.448;18.122;2023-05-11T06:55:18;99350.24;;;21.72;44.32
62703;BME280;66022;50.448;18.122;2023-05-11T06:59:31;99350.94;;;21.37;44.75
62703;BME280;66022;50.448;18.122;2023-05-11T07:03:42;99351.92;;;20.92;45.69
62703;BME280;66022;50.448;18.122;2023-05-11T07:07:54;99352.87;;;20.48;47.11
62703;BME280;66022;50.448;18.122;2023-05-11T07:12:06;99352.90;;;20.06;47.11
62703;BME280;66022;50.448;18.122;2023-05-11T07:16:18;99352.11;;;19.85;48.34
62703;BME280;66022;50.448;18.122;2023-05-11T07:24:42;99349.88;;;19.60;46.76
62703;BME280;66022;50.448;18.122;2023-05-11T07:28:54;99348.44;;;19.52;47.85
62703;BME280;66022;50.448;18.122;2023-05-11T07:33:07;99347.94;;;19.44;47.26
62703;BME280;66022;50.448;18.122;2023-05-11T07:37:18;99347.56;;;19.36;47.98
62703;BME280;66022;50.448;18.122;2023-05-11T07:41:30;99346.56;;;19.37;46.58
62703;BME280;66022;50.448;18.122;2023-05-11T07:45:42;99345.81;;;19.56;46.50
62703;BME280;66022;50.448;18.122;2023-05-11T07:49:54;99346.95;;;19.85;44.04
62703;BME280;66022;50.448;18.122;2023-05-11T07:54:06;99347.30;;;20.15;43.15
62703;BME280;66022;50.448;18.122;2023-05-11T07:58:18;99346.20;;;20.53;43.43
62703;BME280;66022;50.448;18.122;2023-05-11T08:02:33;99344.56;;;20.88;41.72
62703;BME280;66022;50.448;18.122;2023-05-11T08:06:42;99343.65;;;21.27;41.60
62703;BME280;66022;50.448;18.122;2023-05-11T08:10:54;99342.80;;;21.62;41.76
62703;BME280;66022;50.448;18.122;2023-05-11T08:15:07;99341.39;;;21.96;41.46
62703;BME280;66022;50.448;18.122;2023-05-11T08:19:18;99340.67;;;22.28;39.51
62703;BME280;66022;50.448;18.122;2023-05-11T08:23:30;99340.53;;;22.56;40.94
62703;BME280;66022;50.448;18.122;2023-05-11T08:27:42;99340.42;;;22.85;40.92
62703;BME280;66022;50.448;18.122;2023-05-11T08:31:54;99339.25;;;23.03;35.24
62703;BME280;66022;50.448;18.122;2023-05-11T08:36:06;99338.23;;;23.19;38.38
62703;BME280;66022;50.448;18.122;2023-05-11T08:40:18;99337.41;;;23.33;38.60
62703;BME280;66022;50.448;18.122;2023-05-11T08:44:31;99336.06;;;23.42;37.04
62703;BME280;66022;50.448;18.122;2023-05-11T08:48:42;99334.77;;;23.46;37.42
62703;BME280;66022;50.448;18.122;2023-05-11T08:52:54;99332.90;;;23.33;37.99
62703;BME280;66022;50.448;18.122;2023-05-11T08:57:06;99331.42;;;23.18;35.95
62703;BME280;66022;50.448;18.122;2023-05-11T09:01:18;99330.44;;;22.99;36.60
62703;BME280;66022;50.448;18.122;2023-05-11T09:05:30;99328.77;;;22.87;35.58
62703;BME280;66022;50.448;18.122;2023-05-11T09:09:42;99326.67;;;22.83;38.87
62703;BME280;66022;50.448;18.122;2023-05-11T09:13:54;99324.90;;;22.94;38.03
62703;BME280;66022;50.448;18.122;2023-05-11T09:18:06;99321.88;;;23.16;38.90
62703;BME280;66022;50.448;18.122;2023-05-11T09:22:18;99319.50;;;23.28;32.80
62703;BME280;66022;50.448;18.122;2023-05-11T09:26:30;99318.19;;;23.53;33.25
62703;BME280;66022;50.448;18.122;2023-05-11T09:30:42;99316.77;;;23.75;36.61
62703;BME280;66022;50.448;18.122;2023-05-11T09:34:54;99315.97;;;23.78;36.62
62703;BME280;66022;50.448;18.122;2023-05-11T09:39:06;99315.52;;;23.82;35.58
62703;BME280;66022;50.448;18.122;2023-05-11T09:43:25;99314.37;;;23.77;37.49
62703;BME280;66022;50.448;18.122;2023-05-11T09:47:30;99313.10;;;23.75;38.19
62703;BME280;66022;50.448;18.122;2023-05-11T09:51:42;99311.58;;;23.83;33.56
62703;BME280;66022;50.448;18.122;2023-05-11T09:55:54;99309.48;;;23.88;37.54
62703;BME280;66022;50.448;18.122;2023-05-11T10:00:07;99307.05;;;23.82;36.58
62703;BME280;66022;50.448;18.122;2023-05-11T10:04:27;99304.41;;;23.72;36.10
62703;BME280;66022;50.448;18.122;2023-05-11T10:08:30;99301.62;;;23.83;34.48
62703;BME280;66022;50.448;18.122;2023-05-11T10:12:42;99297.16;;;23.98;34.42
62703;BME280;66022;50.448;18.122;2023-05-11T10:16:55;99293.34;;;24.15;35.35
62703;BME280;66022;50.448;18.122;2023-05-11T10:21:06;99288.84;;;24.29;35.34
62703;BME280;66022;50.448;18.122;2023-05-11T10:25:19;99286.60;;;24.41;32.87
62703;BME280;66022;50.448;18.122;2023-05-11T10:29:30;99283.15;;;24.56;33.73
62703;BME280;66022;50.448;18.122;2023-05-11T10:33:42;99278.88;;;24.68;34.04
62703;BME280;66022;50.448;18.122;2023-05-11T10:37:54;99274.36;;;24.82;35.22
62703;BME280;66022;50.448;18.122;2023-05-11T11:03:10;99254.55;;;24.83;34.83
62703;BME280;66022;50.448;18.122;2023-05-11T11:07:18;99252.26;;;24.81;35.70
62703;BME280;66022;50.448;18.122;2023-05-11T11:19:54;99245.71;;;24.63;36.33
62703;BME280;66022;50.448;18.122;2023-05-11T11:24:06;99244.93;;;24.49;36.81
62703;BME280;66022;50.448;18.122;2023-05-11T11:28:18;99243.38;;;24.48;36.49
62703;BME280;66022;50.448;18.122;2023-05-11T11:32:30;99242.99;;;24.45;32.77
62703;BME280;66022;50.448;18.122;2023-05-11T11:40:54;99238.79;;;24.41;33.67
62703;BME280;66022;50.448;18.122;2023-05-11T11:49:18;99233.37;;;24.19;35.15
62703;BME280;66022;50.448;18.122;2023-05-11T11:57:42;99229.52;;;24.09;35.63
62703;BME280;66022;50.448;18.122;2023-05-11T12:01:54;99226.79;;;24.03;32.55
62703;BME280;66022;50.448;18.122;2023-05-11T12:06:07;99225.02;;;24.01;36.00
62703;BME280;66022;50.448;18.122;2023-05-11T12:10:19;99222.91;;;24.00;35.91
62703;BME280;66022;50.448;18.122;2023-05-11T12:14:30;99221.91;;;23.95;30.81
62703;BME280;66022;50.448;18.122;2023-05-11T12:18:52;99219.58;;;23.96;34.21
62703;BME280;66022;50.448;18.122;2023-05-11T12:22:54;99216.97;;;23.90;35.87
62703;BME280;66022;50.448;18.122;2023-05-11T12:27:06;99212.73;;;23.86;33.95
62703;BME280;66022;50.448;18.122;2023-05-11T12:31:18;99208.48;;;23.83;36.08
62703;BME280;66022;50.448;18.122;2023-05-11T12:35:31;99204.05;;;23.77;34.76
62703;BME280;66022;50.448;18.122;2023-05-11T12:39:42;99200.90;;;23.78;32.25
62703;BME280;66022;50.448;18.122;2023-05-11T12:43:54;99197.13;;;23.76;34.25
62703;BME280;66022;50.448;18.122;2023-05-11T12:48:06;99193.77;;;23.80;34.53
62703;BME280;66022;50.448;18.122;2023-05-11T12:52:18;99191.44;;;23.79;32.38
62703;BME280;66022;50.448;18.122;2023-05-11T12:56:42;99189.67;;;23.82;35.41
62703;BME280;66022;50.448;18.122;2023-05-11T13:04:54;99185.53;;;23.67;34.96
62703;BME280;66022;50.448;18.122;2023-05-11T13:09:06;99183.26;;;23.55;34.68
62703;BME280;66022;50.448;18.122;2023-05-11T13:17:31;99177.51;;;23.36;32.12
62703;BME280;66022;50.448;18.122;2023-05-11T13:21:44;99174.24;;;23.29;31.99
62703;BME280;66022;50.448;18.122;2023-05-11T13:25:54;99170.72;;;23.23;32.54
62703;BME280;66022;50.448;18.122;2023-05-11T13:30:07;99166.33;;;23.17;33.76
62703;BME280;66022;50.448;18.122;2023-05-11T13:34:18;99161.64;;;23.07;32.62
62703;BME280;66022;50.448;18.122;2023-05-11T13:38:30;99156.83;;;23.05;33.11
62703;BME280;66022;50.448;18.122;2023-05-11T13:42:42;99151.51;;;23.00;31.80
62703;BME280;66022;50.448;18.122;2023-05-11T13:46:54;99148.03;;;23.01;31.63
62703;BME280;66022;50.448;18.122;2023-05-11T13:51:06;99144.06;;;23.03;32.80
62703;BME280;66022;50.448;18.122;2023-05-11T13:55:18;99139.71;;;23.02;32.58
62703;BME280;66022;50.448;18.122;2023-05-11T13:59:31;99136.05;;;23.02;31.63
62703;BME280;66022;50.448;18.122;2023-05-11T14:03:42;99132.83;;;22.99;30.19
62703;BME280;66022;50.448;18.122;2023-05-11T14:07:54;99130.31;;;22.98;29.58
62703;BME280;66022;50.448;18.122;2023-05-11T14:12:07;99129.32;;;22.91;27.26
62703;BME280;66022;50.448;18.122;2023-05-11T14:16:18;99127.51;;;22.89;31.65
62703;BME280;66022;50.448;18.122;2023-05-11T14:20:30;99125.08;;;22.89;31.92
62703;BME280;66022;50.448;18.122;2023-05-11T14:24:43;99123.39;;;22.86;30.22
62703;BME280;66022;50.448;18.122;2023-05-11T14:28:54;99123.82;;;22.81;28.20
62703;BME280;66022;50.448;18.122;2023-05-11T14:33:06;99122.22;;;22.70;29.50
62703;BME280;66022;50.448;18.122;2023-05-11T14:37:18;99118.79;;;22.64;29.09
62703;BME280;66022;50.448;18.122;2023-05-11T14:41:30;99115.84;;;22.58;31.76
62703;BME280;66022;50.448;18.122;2023-05-11T14:45:42;99113.34;;;22.53;28.83
62703;BME280;66022;50.448;18.122;2023-05-11T14:49:54;99111.13;;;22.47;29.74
62703;BME280;66022;50.448;18.122;2023-05-11T14:54:06;99108.76;;;22.33;29.80
62703;BME280;66022;50.448;18.122;2023-05-11T14:58:18;99106.31;;;22.27;30.91
62703;BME280;66022;50.448;18.122;2023-05-11T15:02:30;99105.28;;;22.19;30.80
62703;BME280;66022;50.448;18.122;2023-05-11T15:06:42;99103.91;;;22.11;30.78
62703;BME280;66022;50.448;18.122;2023-05-11T15:10:54;99102.33;;;22.05;33.30
62703;BME280;66022;50.448;18.122;2023-05-11T15:15:07;99101.67;;;21.95;32.22
62703;BME280;66022;50.448;18.122;2023-05-11T15:19:18;99100.51;;;21.87;32.08
62703;BME280;66022;50.448;18.122;2023-05-11T15:23:30;99099.49;;;21.76;31.43
62703;BME280;66022;50.448;18.122;2023-05-11T15:27:42;99098.77;;;21.67;33.71
62703;BME280;66022;50.448;18.122;2023-05-11T15:31:54;99098.66;;;21.56;31.83
62703;BME280;66022;50.448;18.122;2023-05-11T15:36:10;99099.02;;;21.48;34.02
62703;BME280;66022;50.448;18.122;2023-05-11T15:40:18;99099.86;;;21.40;33.28
62703;BME280;66022;50.448;18.122;2023-05-11T15:44:30;99100.08;;;21.29;33.75
62703;BME280;66022;50.448;18.122;2023-05-11T15:48:42;99101.22;;;21.24;36.38
62703;BME280;66022;50.448;18.122;2023-05-11T15:52:54;99103.41;;;21.17;36.31
62703;BME280;66022;50.448;18.122;2023-05-11T15:57:06;99105.72;;;21.11;35.74
62703;BME280;66022;50.448;18.122;2023-05-11T16:01:19;99107.37;;;21.03;33.64
62703;BME280;66022;50.448;18.122;2023-05-11T16:05:31;99107.06;;;20.94;36.01
62703;BME280;66022;50.448;18.122;2023-05-11T16:09:44;99107.17;;;20.88;36.05
62703;BME280;66022;50.448;18.122;2023-05-11T16:13:55;99107.29;;;20.80;35.66
62703;BME280;66022;50.448;18.122;2023-05-11T16:18:06;99107.72;;;20.73;36.14
62703;BME280;66022;50.448;18.122;2023-05-11T16:22:18;99107.84;;;20.62;34.88
62703;BME280;66022;50.448;18.122;2023-05-11T16:26:30;99108.67;;;20.56;34.64
62703;BME280;66022;50.448;18.122;2023-05-11T16:30:42;99108.51;;;20.49;34.98
62703;BME280;66022;50.448;18.122;2023-05-11T16:34:55;99108.91;;;20.40;36.25
62703;BME280;66022;50.448;18.122;2023-05-11T16:39:07;99109.48;;;20.34;35.11
62703;BME280;66022;50.448;18.122;2023-05-11T16:43:19;99110.01;;;20.27;36.40
62703;BME280;66022;50.448;18.122;2023-05-11T16:47:31;99110.13;;;20.21;36.92
62703;BME280;66022;50.448;18.122;2023-05-11T16:51:43;99110.52;;;20.14;35.80
62703;BME280;66022;50.448;18.122;2023-05-11T16:55:55;99111.00;;;20.06;37.30
62703;BME280;66022;50.448;18.122;2023-05-11T17:00:07;99112.14;;;19.99;36.68
62703;BME280;66022;50.448;18.122;2023-05-11T17:04:19;99112.61;;;19.88;36.79
62703;BME280;66022;50.448;18.122;2023-05-11T17:08:31;99113.85;;;19.80;36.51
62703;BME280;66022;50.448;18.122;2023-05-11T17:12:43;99114.40;;;19.69;36.54
62703;BME280;66022;50.448;18.122;2023-05-11T17:16:55;99115.36;;;19.62;36.49
62703;BME280;66022;50.448;18.122;2023-05-11T17:21:07;99116.00;;;19.54;38.36
62703;BME280;66022;50.448;18.122;2023-05-11T17:25:19;99117.55;;;19.46;36.70
62703;BME280;66022;50.448;18.122;2023-05-11T17:29:30;99119.37;;;19.38;38.71
62703;BME280;66022;50.448;18.122;2023-05-11T17:33:43;99120.70;;;19.28;37.72
62703;BME280;66022;50.448;18.122;2023-05-11T17:37:55;99122.29;;;19.19;38.16
62703;BME280;66022;50.448;18.122;2023-05-11T17:42:10;99123.58;;;19.08;35.79
62703;BME280;66022;50.448;18.122;2023-05-11T17:46:19;99125.84;;;19.00;37.12
62703;BME280;66022;50.448;18.122;2023-05-11T17:50:31;99128.34;;;18.91;38.16
62703;BME280;66022;50.448;18.122;2023-05-11T17:54:43;99130.96;;;18.82;39.24
62703;BME280;66022;50.448;18.122;2023-05-11T17:58:55;99134.38;;;18.74;39.29
62703;BME280;66022;50.448;18.122;2023-05-11T18:03:07;99137.78;;;18.63;38.99
62703;BME280;66022;50.448;18.122;2023-05-11T18:07:19;99141.53;;;18.54;39.56
62703;BME280;66022;50.448;18.122;2023-05-11T18:11:31;99145.56;;;18.45;39.72
62703;BME280;66022;50.448;18.122;2023-05-11T18:15:43;99149.58;;;18.35;39.83
62703;BME280;66022;50.448;18.122;2023-05-11T18:19:55;99153.94;;;18.25;39.66
62703;BME280;66022;50.448;18.122;2023-05-11T18:24:07;99158.67;;;18.14;39.67
62703;BME280;66022;50.448;18.122;2023-05-11T18:28:19;99162.61;;;18.05;39.72
62703;BME280;66022;50.448;18.122;2023-05-11T18:32:31;99165.94;;;17.94;40.35
62703;BME280;66022;50.448;18.122;2023-05-11T18:36:43;99170.67;;;17.86;40.80
62703;BME280;66022;50.448;18.122;2023-05-11T18:40:55;99175.27;;;17.78;41.35
62703;BME280;66022;50.448;18.122;2023-05-11T18:45:07;99179.02;;;17.68;41.05
62703;BME280;66022;50.448;18.122;2023-05-11T18:49:19;99183.09;;;17.60;40.93
62703;BME280;66022;50.448;18.122;2023-05-11T18:53:31;99187.55;;;17.51;40.92
62703;BME280;66022;50.448;18.122;2023-05-11T18:57:43;99192.02;;;17.45;41.19
62703;BME280;66022;50.448;18.122;2023-05-11T19:01:55;99195.95;;;17.38;40.52
62703;BME280;66022;50.448;18.122;2023-05-11T19:06:07;99200.11;;;17.33;42.36
62703;BME280;66022;50.448;18.122;2023-05-11T19:10:19;99203.72;;;17.27;41.85
62703;BME280;66022;50.448;18.122;2023-05-11T19:14:34;99208.09;;;17.18;42.08
62703;BME280;66022;50.448;18.122;2023-05-11T19:18:43;99212.14;;;17.12;41.98
62703;BME280;66022;50.448;18.122;2023-05-11T19:22:55;99216.05;;;17.05;41.83
62703;BME280;66022;50.448;18.122;2023-05-11T19:27:07;99220.64;;;16.99;41.80
62703;BME280;66022;50.448;18.122;2023-05-11T19:31:19;99223.05;;;16.93;42.92
62703;BME280;66022;50.448;18.122;2023-05-11T19:35:31;99226.93;;;16.87;43.02
62703;BME280;66022;50.448;18.122;2023-05-11T19:39:43;99230.59;;;16.80;42.87
62703;BME280;66022;50.448;18.122;2023-05-11T19:43:55;99232.76;;;16.72;43.56
62703;BME280;66022;50.448;18.122;2023-05-11T19:48:07;99234.70;;;16.66;43.55
62703;BME280;66022;50.448;18.122;2023-05-11T19:52:19;99237.64;;;16.57;43.39
62703;BME280;66022;50.448;18.122;2023-05-11T19:56:31;99240.63;;;16.51;43.74
62703;BME280;66022;50.448;18.122;2023-05-11T20:00:43;99242.65;;;16.45;43.72
62703;BME280;66022;50.448;18.122;2023-05-11T20:04:55;99245.14;;;16.38;43.84
62703;BME280;66022;50.448;18.122;2023-05-11T20:09:07;99246.25;;;16.32;44.13
62703;BME280;66022;50.448;18.122;2023-05-11T20:13:19;99247.93;;;16.26;44.70
62703;BME280;66022;50.448;18.122;2023-05-11T20:17:31;99248.74;;;16.19;44.36
62703;BME280;66022;50.448;18.122;2023-05-11T20:21:43;99250.23;;;16.12;44.34
62703;BME280;66022;50.448;18.122;2023-05-11T20:25:55;99251.56;;;16.05;44.56
62703;BME280;66022;50.448;18.122;2023-05-11T20:30:10;99252.67;;;15.99;45.08
62703;BME280;66022;50.448;18.122;2023-05-11T20:34:19;99253.52;;;15.90;44.82
62703;BME280;66022;50.448;18.122;2023-05-11T20:38:31;99253.08;;;15.84;44.88
62703;BME280;66022;50.448;18.122;2023-05-11T20:42:43;99251.89;;;15.77;45.19
62703;BME280;66022;50.448;18.122;2023-05-11T20:46:55;99249.53;;;15.71;45.11
62703;BME280;66022;50.448;18.122;2023-05-11T20:51:07;99247.91;;;15.65;45.39
62703;BME280;66022;50.448;18.122;2023-05-11T20:55:19;99246.59;;;15.59;45.48
62703;BME280;66022;50.448;18.122;2023-05-11T20:59:31;99245.51;;;15.54;45.39
62703;BME280;66022;50.448;18.122;2023-05-11T21:03:43;99243.73;;;15.48;45.53
62703;BME280;66022;50.448;18.122;2023-05-11T21:07:55;99242.05;;;15.44;45.74
62703;BME280;66022;50.448;18.122;2023-05-11T21:12:07;99239.39;;;15.37;45.93
62703;BME280;66022;50.448;18.122;2023-05-11T21:16:19;99237.51;;;15.33;45.93
62703;BME280;66022;50.448;18.122;2023-05-11T21:20:31;99236.06;;;15.30;46.06
62703;BME280;66022;50.448;18.122;2023-05-11T21:24:43;99234.99;;;15.25;46.02
62703;BME280;66022;50.448;18.122;2023-05-11T21:28:56;99234.42;;;15.22;46.12
62703;BME280;66022;50.448;18.122;2023-05-11T21:33:07;99235.11;;;15.18;46.50
62703;BME280;66022;50.448;18.122;2023-05-11T21:37:19;99235.39;;;15.15;46.14
62703;BME280;66022;50.448;18.122;2023-05-11T21:41:31;99236.38;;;15.12;46.25
62703;BME280;66022;50.448;18.122;2023-05-11T21:45:43;99237.92;;;15.09;46.30
62703;BME280;66022;50.448;18.122;2023-05-11T21:49:56;99237.23;;;15.07;46.46
62703;BME280;66022;50.448;18.122;2023-05-11T21:54:07;99237.31;;;15.04;46.39
62703;BME280;66022;50.448;18.122;2023-05-11T21:58:19;99238.39;;;15.02;46.34
62703;BME280;66022;50.448;18.122;2023-05-11T22:02:31;99239.37;;;14.99;46.76
62703;BME280;66022;50.448;18.122;2023-05-11T22:06:43;99239.76;;;14.97;46.42
62703;BME280;66022;50.448;18.122;2023-05-11T22:10:55;99240.53;;;14.95;46.56
62703;BME280;66022;50.448;18.122;2023-05-11T22:15:08;99242.00;;;14.92;46.91
62703;BME280;66022;50.448;18.122;2023-05-11T22:19:20;99242.52;;;14.90;46.71
62703;BME280;66022;50.448;18.122;2023-05-11T22:23:31;99244.59;;;14.86;46.87
62703;BME280;66022;50.448;18.122;2023-05-11T22:27:44;99245.76;;;14.84;46.83
62703;BME280;66022;50.448;18.122;2023-05-11T22:31:55;99246.61;;;14.80;46.88
62703;BME280;66022;50.448;18.122;2023-05-11T22:36:09;99248.02;;;14.79;46.87
62703;BME280;66022;50.448;18.122;2023-05-11T22:40:19;99248.44;;;14.77;47.09
62703;BME280;66022;50.448;18.122;2023-05-11T22:44:31;99250.48;;;14.74;47.05
62703;BME280;66022;50.448;18.122;2023-05-11T22:48:44;99252.73;;;14.73;47.08
62703;BME280;66022;50.448;18.122;2023-05-11T22:52:55;99254.33;;;14.71;47.25
62703;BME280;66022;50.448;18.122;2023-05-11T22:57:07;99255.49;;;14.70;46.72
62703;BME280;66022;50.448;18.122;2023-05-11T23:01:19;99257.64;;;14.69;46.78
62703;BME280;66022;50.448;18.122;2023-05-11T23:05:31;99258.80;;;14.67;46.66
62703;BME280;66022;50.448;18.122;2023-05-11T23:09:43;99261.39;;;14.66;46.78
62703;BME280;66022;50.448;18.122;2023-05-11T23:13:55;99261.81;;;14.63;46.89
62703;BME280;66022;50.448;18.122;2023-05-11T23:18:07;99263.17;;;14.63;46.75